sensor_id;sensor_type;location;lat;lon;timestamp;P1;durP1;ratioP1;P2;durP2;ratioP2
59273;SDS011;45044;41.572;24.730;2023-08-12T00:01:20;5.70;;;3.90;;
59273;SDS011;45044;41.572;24.730;2023-08-12T00:03:48;5.20;;;3.80;;
59273;SDS011;45044;41.572;24.730;2023-08-12T00:06:15;6.72;;;4.18;;
59273;SDS011;45044;41.572;24.730;2023-08-12T00:08:42;10.57;;;8.23;;
59273;SDS011;45044;41.572;24.730;2023-08-12T00:11:09;14.45;;;11.05;;
59273;SDS011;45044;41.572;24.730;2023-08-12T00:13:35;8.35;;;5.63;;
59273;SDS011;45044;41.572;24.730;2023-08-12T00:16:02;6.95;;;4.97;;
59273;SDS011;45044;41.572;24.730;2023-08-12T00:18:29;8.30;;;5.80;;
59273;SDS011;45044;41.572;24.730;2023-08-12T00:21:09;7.97;;;5.88;;
59273;SDS011;45044;41.572;24.730;2023-08-12T00:23:37;9.80;;;7.35;;
59273;SDS011;45044;41.572;24.730;2023-08-12T00:26:06;7.18;;;5.75;;
59273;SDS011;45044;41.572;24.730;2023-08-12T00:28:33;9.80;;;6.38;;
59273;SDS011;45044;41.572;24.730;2023-08-12T00:31:00;7.45;;;6.13;;
59273;SDS011;45044;41.572;24.730;2023-08-12T00:33:27;8.68;;;5.75;;
59273;SDS011;45044;41.572;24.730;2023-08-12T00:35:54;7.57;;;4.97;;
59273;SDS011;45044;41.572;24.730;2023-08-12T00:38:21;8.98;;;5.03;;
59273;SDS011;45044;41.572;24.730;2023-08-12T00:40:48;7.55;;;4.60;;
59273;SDS011;45044;41.572;24.730;2023-08-12T00:43:15;7.55;;;4.50;;
59273;SDS011;45044;41.572;24.730;2023-08-12T00:45:41;7.68;;;4.70;;
59273;SDS011;45044;41.572;24.730;2023-08-12T00:48:09;7.25;;;4.07;;
59273;SDS011;45044;41.572;24.730;2023-08-12T00:50:40;6.47;;;4.50;;
59273;SDS011;45044;41.572;24.730;2023-08-12T00:53:08;6.55;;;4.60;;
59273;SDS011;45044;41.572;24.730;2023-08-12T00:55:36;6.60;;;4.45;;
59273;SDS011;45044;41.572;24.730;2023-08-12T00:58:03;7.40;;;4.93;;
59273;SDS011;45044;41.572;24.730;2023-08-12T01:00:31;6.88;;;4.90;;
59273;SDS011;45044;41.572;24.730;2023-08-12T01:02:58;6.75;;;4.70;;
59273;SDS011;45044;41.572;24.730;2023-08-12T01:05:27;6.60;;;4.25;;
59273;SDS011;45044;41.572;24.730;2023-08-12T01:07:56;6.35;;;4.45;;
59273;SDS011;45044;41.572;24.730;2023-08-12T01:10:23;5.97;;;4.50;;
59273;SDS011;45044;41.572;24.730;2023-08-12T01:12:59;6.28;;;4.80;;
59273;SDS011;45044;41.572;24.730;2023-08-12T01:15:30;5.45;;;4.35;;
59273;SDS011;45044;41.572;24.730;2023-08-12T01:17:57;6.25;;;4.30;;
59273;SDS011;45044;41.572;24.730;2023-08-12T01:20:27;6.65;;;4.68;;
59273;SDS011;45044;41.572;24.730;2023-08-12T01:22:58;7.22;;;4.53;;
59273;SDS011;45044;41.572;24.730;2023-08-12T01:25:38;7.13;;;4.70;;
59273;SDS011;45044;41.572;24.730;2023-08-12T01:28:05;6.95;;;4.53;;
59273;SDS011;45044;41.572;24.730;2023-08-12T01:30:39;8.30;;;5.00;;
59273;SDS011;45044;41.572;24.730;2023-08-12T01:36:28;7.00;;;4.60;;
59273;SDS011;45044;41.572;24.730;2023-08-12T01:38:58;7.68;;;5.18;;
59273;SDS011;45044;41.572;24.730;2023-08-12T01:41:29;6.55;;;4.20;;
59273;SDS011;45044;41.572;24.730;2023-08-12T01:43:56;7.60;;;5.07;;
59273;SDS011;45044;41.572;24.730;2023-08-12T01:46:23;9.57;;;5.20;;
59273;SDS011;45044;41.572;24.730;2023-08-12T01:48:50;7.07;;;5.13;;
59273;SDS011;45044;41.572;24.730;2023-08-12T01:51:19;7.95;;;5.00;;
59273;SDS011;45044;41.572;24.730;2023-08-12T01:53:46;7.15;;;4.97;;
59273;SDS011;45044;41.572;24.730;2023-08-12T01:56:23;6.70;;;4.65;;
59273;SDS011;45044;41.572;24.730;2023-08-12T01:58:50;7.20;;;4.78;;
59273;SDS011;45044;41.572;24.730;2023-08-12T02:01:17;6.90;;;5.00;;
59273;SDS011;45044;41.572;24.730;2023-08-12T02:03:44;6.80;;;5.00;;
59273;SDS011;45044;41.572;24.730;2023-08-12T02:06:10;8.20;;;5.15;;
59273;SDS011;45044;41.572;24.730;2023-08-12T02:08:37;6.70;;;4.95;;
59273;SDS011;45044;41.572;24.730;2023-08-12T02:11:04;7.30;;;5.25;;
59273;SDS011;45044;41.572;24.730;2023-08-12T02:13:31;5.93;;;4.32;;
59273;SDS011;45044;41.572;24.730;2023-08-12T02:15:57;7.43;;;4.90;;
59273;SDS011;45044;41.572;24.730;2023-08-12T02:18:24;6.55;;;4.32;;
59273;SDS011;45044;41.572;24.730;2023-08-12T02:20:51;7.70;;;4.57;;
59273;SDS011;45044;41.572;24.730;2023-08-12T02:23:18;7.32;;;5.00;;
59273;SDS011;45044;41.572;24.730;2023-08-12T02:25:45;8.02;;;5.10;;
59273;SDS011;45044;41.572;24.730;2023-08-12T02:28:11;7.32;;;5.05;;
59273;SDS011;45044;41.572;24.730;2023-08-12T02:30:38;6.82;;;4.70;;
59273;SDS011;45044;41.572;24.730;2023-08-12T02:33:05;7.28;;;5.07;;
59273;SDS011;45044;41.572;24.730;2023-08-12T02:35:32;7.32;;;5.00;;
59273;SDS011;45044;41.572;24.730;2023-08-12T02:37:59;6.85;;;5.00;;
59273;SDS011;45044;41.572;24.730;2023-08-12T02:40:25;7.10;;;5.05;;
59273;SDS011;45044;41.572;24.730;2023-08-12T02:42:52;6.93;;;4.97;;
59273;SDS011;45044;41.572;24.730;2023-08-12T02:45:19;7.63;;;4.88;;
59273;SDS011;45044;41.572;24.730;2023-08-12T02:47:45;7.55;;;5.15;;
59273;SDS011;45044;41.572;24.730;2023-08-12T02:50:12;8.20;;;5.18;;
59273;SDS011;45044;41.572;24.730;2023-08-12T02:52:39;6.32;;;4.88;;
59273;SDS011;45044;41.572;24.730;2023-08-12T02:55:06;6.97;;;5.43;;
59273;SDS011;45044;41.572;24.730;2023-08-12T02:57:33;7.10;;;4.80;;
59273;SDS011;45044;41.572;24.730;2023-08-12T02:59:59;7.25;;;4.93;;
59273;SDS011;45044;41.572;24.730;2023-08-12T03:02:26;7.55;;;5.03;;
59273;SDS011;45044;41.572;24.730;2023-08-12T03:04:53;6.40;;;4.65;;
59273;SDS011;45044;41.572;24.730;2023-08-12T03:07:23;7.95;;;5.20;;
59273;SDS011;45044;41.572;24.730;2023-08-12T03:09:50;7.57;;;5.20;;
59273;SDS011;45044;41.572;24.730;2023-08-12T03:12:16;6.43;;;4.50;;
59273;SDS011;45044;41.572;24.730;2023-08-12T03:14:43;5.97;;;4.95;;
59273;SDS011;45044;41.572;24.730;2023-08-12T03:17:10;7.35;;;4.88;;
59273;SDS011;45044;41.572;24.730;2023-08-12T03:19:37;8.63;;;5.35;;
59273;SDS011;45044;41.572;24.730;2023-08-12T03:22:04;8.15;;;5.35;;
59273;SDS011;45044;41.572;24.730;2023-08-12T03:24:30;7.68;;;5.22;;
59273;SDS011;45044;41.572;24.730;2023-08-12T03:26:57;9.45;;;5.70;;
59273;SDS011;45044;41.572;24.730;2023-08-12T03:29:24;8.40;;;5.38;;
59273;SDS011;45044;41.572;24.730;2023-08-12T03:31:51;7.35;;;5.03;;
59273;SDS011;45044;41.572;24.730;2023-08-12T03:34:18;8.75;;;5.03;;
59273;SDS011;45044;41.572;24.730;2023-08-12T03:36:44;7.13;;;4.70;;
59273;SDS011;45044;41.572;24.730;2023-08-12T03:39:14;7.97;;;4.97;;
59273;SDS011;45044;41.572;24.730;2023-08-12T03:41:41;9.00;;;5.15;;
59273;SDS011;45044;41.572;24.730;2023-08-12T03:44:08;7.18;;;5.32;;
59273;SDS011;45044;41.572;24.730;2023-08-12T03:46:35;6.75;;;5.05;;
59273;SDS011;45044;41.572;24.730;2023-08-12T03:49:01;6.63;;;4.68;;
59273;SDS011;45044;41.572;24.730;2023-08-12T03:51:28;7.63;;;4.80;;
59273;SDS011;45044;41.572;24.730;2023-08-12T03:53:55;8.02;;;4.72;;
59273;SDS011;45044;41.572;24.730;2023-08-12T03:56:23;8.40;;;4.65;;
59273;SDS011;45044;41.572;24.730;2023-08-12T03:58:50;9.38;;;5.25;;
59273;SDS011;45044;41.572;24.730;2023-08-12T04:01:17;7.03;;;4.70;;
59273;SDS011;45044;41.572;24.730;2023-08-12T04:03:44;8.15;;;5.10;;
59273;SDS011;45044;41.572;24.730;2023-08-12T04:06:11;7.80;;;5.05;;
59273;SDS011;45044;41.572;24.730;2023-08-12T04:08:38;10.35;;;5.65;;
59273;SDS011;45044;41.572;24.730;2023-08-12T04:11:05;7.13;;;5.20;;
59273;SDS011;45044;41.572;24.730;2023-08-12T04:13:32;6.85;;;4.68;;
59273;SDS011;45044;41.572;24.730;2023-08-12T04:15:58;8.52;;;4.90;;
59273;SDS011;45044;41.572;24.730;2023-08-12T04:18:25;10.02;;;5.85;;
59273;SDS011;45044;41.572;24.730;2023-08-12T04:20:52;7.80;;;5.28;;
59273;SDS011;45044;41.572;24.730;2023-08-12T04:23:19;6.55;;;4.70;;
59273;SDS011;45044;41.572;24.730;2023-08-12T04:25:47;6.80;;;5.03;;
59273;SDS011;45044;41.572;24.730;2023-08-12T04:28:14;6.40;;;4.68;;
59273;SDS011;45044;41.572;24.730;2023-08-12T04:30:45;7.80;;;5.82;;
59273;SDS011;45044;41.572;24.730;2023-08-12T04:33:13;6.90;;;4.93;;
59273;SDS011;45044;41.572;24.730;2023-08-12T04:35:41;9.10;;;5.05;;
59273;SDS011;45044;41.572;24.730;2023-08-12T04:38:08;7.88;;;5.57;;
59273;SDS011;45044;41.572;24.730;2023-08-12T04:40:38;7.35;;;5.25;;
59273;SDS011;45044;41.572;24.730;2023-08-12T04:43:07;8.10;;;5.28;;
59273;SDS011;45044;41.572;24.730;2023-08-12T04:45:34;7.13;;;4.95;;
59273;SDS011;45044;41.572;24.730;2023-08-12T04:48:01;7.78;;;5.10;;
59273;SDS011;45044;41.572;24.730;2023-08-12T04:50:31;8.68;;;4.78;;
59273;SDS011;45044;41.572;24.730;2023-08-12T04:53:00;7.88;;;5.85;;
59273;SDS011;45044;41.572;24.730;2023-08-12T04:55:27;8.23;;;4.88;;
59273;SDS011;45044;41.572;24.730;2023-08-12T04:57:54;7.75;;;4.80;;
59273;SDS011;45044;41.572;24.730;2023-08-12T05:00:21;8.07;;;5.10;;
59273;SDS011;45044;41.572;24.730;2023-08-12T05:02:48;7.88;;;4.35;;
59273;SDS011;45044;41.572;24.730;2023-08-12T05:05:15;8.48;;;4.75;;
59273;SDS011;45044;41.572;24.730;2023-08-12T05:07:42;7.50;;;4.38;;
59273;SDS011;45044;41.572;24.730;2023-08-12T05:10:11;5.65;;;4.15;;
59273;SDS011;45044;41.572;24.730;2023-08-12T05:12:37;5.97;;;3.83;;
59273;SDS011;45044;41.572;24.730;2023-08-12T05:15:05;5.57;;;4.03;;
59273;SDS011;45044;41.572;24.730;2023-08-12T05:17:32;6.72;;;4.22;;
59273;SDS011;45044;41.572;24.730;2023-08-12T05:19:59;6.55;;;4.22;;
59273;SDS011;45044;41.572;24.730;2023-08-12T05:22:26;6.75;;;3.95;;
59273;SDS011;45044;41.572;24.730;2023-08-12T05:24:52;7.20;;;4.35;;
59273;SDS011;45044;41.572;24.730;2023-08-12T05:27:19;6.57;;;4.00;;
59273;SDS011;45044;41.572;24.730;2023-08-12T05:29:46;8.70;;;4.55;;
59273;SDS011;45044;41.572;24.730;2023-08-12T05:32:12;6.85;;;4.05;;
59273;SDS011;45044;41.572;24.730;2023-08-12T05:34:40;6.82;;;4.22;;
59273;SDS011;45044;41.572;24.730;2023-08-12T05:37:06;6.90;;;4.68;;
59273;SDS011;45044;41.572;24.730;2023-08-12T05:39:33;7.65;;;4.38;;
59273;SDS011;45044;41.572;24.730;2023-08-12T05:42:00;6.00;;;3.88;;
59273;SDS011;45044;41.572;24.730;2023-08-12T05:44:27;6.88;;;4.65;;
59273;SDS011;45044;41.572;24.730;2023-08-12T05:46:53;6.05;;;4.32;;
59273;SDS011;45044;41.572;24.730;2023-08-12T05:49:20;7.82;;;4.40;;
59273;SDS011;45044;41.572;24.730;2023-08-12T05:51:47;6.30;;;4.40;;
59273;SDS011;45044;41.572;24.730;2023-08-12T05:54:14;6.10;;;4.20;;
59273;SDS011;45044;41.572;24.730;2023-08-12T05:56:40;5.88;;;4.00;;
59273;SDS011;45044;41.572;24.730;2023-08-12T05:59:07;5.85;;;4.22;;
59273;SDS011;45044;41.572;24.730;2023-08-12T06:01:34;6.25;;;3.95;;
59273;SDS011;45044;41.572;24.730;2023-08-12T06:04:01;6.63;;;3.97;;
59273;SDS011;45044;41.572;24.730;2023-08-12T06:06:28;6.05;;;4.50;;
59273;SDS011;45044;41.572;24.730;2023-08-12T06:08:55;5.55;;;4.05;;
59273;SDS011;45044;41.572;24.730;2023-08-12T06:11:22;6.00;;;4.15;;
59273;SDS011;45044;41.572;24.730;2023-08-12T06:13:48;7.80;;;3.88;;
59273;SDS011;45044;41.572;24.730;2023-08-12T06:16:16;5.38;;;3.85;;
59273;SDS011;45044;41.572;24.730;2023-08-12T06:18:43;4.38;;;3.20;;
59273;SDS011;45044;41.572;24.730;2023-08-12T06:21:09;4.68;;;2.97;;
59273;SDS011;45044;41.572;24.730;2023-08-12T06:23:36;3.53;;;2.72;;
59273;SDS011;45044;41.572;24.730;2023-08-12T06:26:03;3.50;;;2.60;;
59273;SDS011;45044;41.572;24.730;2023-08-12T06:28:30;4.72;;;2.70;;
59273;SDS011;45044;41.572;24.730;2023-08-12T06:30:57;3.95;;;2.25;;
59273;SDS011;45044;41.572;24.730;2023-08-12T06:33:24;4.75;;;3.20;;
59273;SDS011;45044;41.572;24.730;2023-08-12T06:35:51;4.97;;;3.10;;
59273;SDS011;45044;41.572;24.730;2023-08-12T06:38:18;3.35;;;2.80;;
59273;SDS011;45044;41.572;24.730;2023-08-12T06:40:45;4.22;;;2.65;;
59273;SDS011;45044;41.572;24.730;2023-08-12T06:43:13;4.93;;;2.80;;
59273;SDS011;45044;41.572;24.730;2023-08-12T06:45:40;7.18;;;3.13;;
59273;SDS011;45044;41.572;24.730;2023-08-12T06:48:07;12.75;;;4.07;;
59273;SDS011;45044;41.572;24.730;2023-08-12T06:50:34;7.82;;;3.30;;
59273;SDS011;45044;41.572;24.730;2023-08-12T06:53:00;5.80;;;3.20;;
59273;SDS011;45044;41.572;24.730;2023-08-12T06:55:27;4.60;;;2.72;;
59273;SDS011;45044;41.572;24.730;2023-08-12T06:57:54;6.93;;;2.85;;
59273;SDS011;45044;41.572;24.730;2023-08-12T07:00:21;4.38;;;2.85;;
59273;SDS011;45044;41.572;24.730;2023-08-12T07:02:48;4.07;;;3.13;;
59273;SDS011;45044;41.572;24.730;2023-08-12T07:05:14;4.30;;;2.55;;
59273;SDS011;45044;41.572;24.730;2023-08-12T07:07:41;3.42;;;2.20;;
59273;SDS011;45044;41.572;24.730;2023-08-12T07:10:08;4.35;;;2.20;;
59273;SDS011;45044;41.572;24.730;2023-08-12T07:12:36;4.40;;;2.33;;
59273;SDS011;45044;41.572;24.730;2023-08-12T07:15:03;3.78;;;2.15;;
59273;SDS011;45044;41.572;24.730;2023-08-12T07:17:30;4.07;;;2.25;;
59273;SDS011;45044;41.572;24.730;2023-08-12T07:19:56;3.58;;;2.10;;
59273;SDS011;45044;41.572;24.730;2023-08-12T07:22:23;3.15;;;2.25;;
59273;SDS011;45044;41.572;24.730;2023-08-12T07:24:50;3.33;;;2.08;;
59273;SDS011;45044;41.572;24.730;2023-08-12T07:27:18;3.55;;;2.30;;
59273;SDS011;45044;41.572;24.730;2023-08-12T07:29:45;2.92;;;1.83;;
59273;SDS011;45044;41.572;24.730;2023-08-12T07:32:12;2.75;;;2.17;;
59273;SDS011;45044;41.572;24.730;2023-08-12T07:34:39;3.35;;;1.95;;
59273;SDS011;45044;41.572;24.730;2023-08-12T07:37:06;4.85;;;2.20;;
59273;SDS011;45044;41.572;24.730;2023-08-12T07:39:33;3.55;;;2.15;;
59273;SDS011;45044;41.572;24.730;2023-08-12T07:42:00;2.97;;;2.00;;
59273;SDS011;45044;41.572;24.730;2023-08-12T07:44:26;3.13;;;2.10;;
59273;SDS011;45044;41.572;24.730;2023-08-12T07:46:53;3.25;;;2.45;;
59273;SDS011;45044;41.572;24.730;2023-08-12T07:49:21;3.50;;;2.50;;
59273;SDS011;45044;41.572;24.730;2023-08-12T07:51:48;2.58;;;1.92;;
59273;SDS011;45044;41.572;24.730;2023-08-12T07:54:15;5.10;;;2.95;;
59273;SDS011;45044;41.572;24.730;2023-08-12T07:56:42;2.05;;;1.77;;
59273;SDS011;45044;41.572;24.730;2023-08-12T07:59:09;3.17;;;1.85;;
59273;SDS011;45044;41.572;24.730;2023-08-12T08:01:36;3.65;;;2.17;;
59273;SDS011;45044;41.572;24.730;2023-08-12T08:04:04;4.47;;;2.22;;
59273;SDS011;45044;41.572;24.730;2023-08-12T08:06:31;4.90;;;2.10;;
59273;SDS011;45044;41.572;24.730;2023-08-12T08:08:58;2.17;;;1.80;;
59273;SDS011;45044;41.572;24.730;2023-08-12T08:11:27;4.18;;;2.13;;
59273;SDS011;45044;41.572;24.730;2023-08-12T08:13:55;2.42;;;1.95;;
59273;SDS011;45044;41.572;24.730;2023-08-12T08:16:21;2.95;;;2.00;;
59273;SDS011;45044;41.572;24.730;2023-08-12T08:18:48;2.17;;;1.65;;
59273;SDS011;45044;41.572;24.730;2023-08-12T08:21:15;3.40;;;2.00;;
59273;SDS011;45044;41.572;24.730;2023-08-12T08:23:42;4.22;;;2.40;;
59273;SDS011;45044;41.572;24.730;2023-08-12T08:26:09;2.72;;;1.90;;
59273;SDS011;45044;41.572;24.730;2023-08-12T08:28:40;2.50;;;1.70;;
59273;SDS011;45044;41.572;24.730;2023-08-12T08:31:07;5.97;;;2.10;;
59273;SDS011;45044;41.572;24.730;2023-08-12T08:33:34;2.33;;;1.90;;
59273;SDS011;45044;41.572;24.730;2023-08-12T08:36:00;2.60;;;1.75;;
59273;SDS011;45044;41.572;24.730;2023-08-12T08:38:27;2.95;;;1.80;;
59273;SDS011;45044;41.572;24.730;2023-08-12T08:40:54;2.97;;;1.98;;
59273;SDS011;45044;41.572;24.730;2023-08-12T08:43:22;7.28;;;2.63;;
59273;SDS011;45044;41.572;24.730;2023-08-12T08:45:52;2.85;;;2.13;;
59273;SDS011;45044;41.572;24.730;2023-08-12T08:48:22;4.85;;;2.13;;
59273;SDS011;45044;41.572;24.730;2023-08-12T08:50:49;3.28;;;2.10;;
59273;SDS011;45044;41.572;24.730;2023-08-12T08:53:18;2.78;;;1.95;;
59273;SDS011;45044;41.572;24.730;2023-08-12T08:55:45;2.50;;;1.95;;
59273;SDS011;45044;41.572;24.730;2023-08-12T08:58:12;2.78;;;2.03;;
59273;SDS011;45044;41.572;24.730;2023-08-12T09:00:46;3.53;;;2.08;;
59273;SDS011;45044;41.572;24.730;2023-08-12T09:03:13;3.13;;;1.90;;
59273;SDS011;45044;41.572;24.730;2023-08-12T09:05:41;2.92;;;1.85;;
59273;SDS011;45044;41.572;24.730;2023-08-12T09:08:09;3.10;;;2.00;;
59273;SDS011;45044;41.572;24.730;2023-08-12T09:10:38;5.43;;;2.15;;
59273;SDS011;45044;41.572;24.730;2023-08-12T09:13:07;3.67;;;2.17;;
59273;SDS011;45044;41.572;24.730;2023-08-12T09:15:35;5.25;;;2.50;;
59273;SDS011;45044;41.572;24.730;2023-08-12T09:18:04;3.78;;;1.98;;
59273;SDS011;45044;41.572;24.730;2023-08-12T09:20:35;2.97;;;2.20;;
59273;SDS011;45044;41.572;24.730;2023-08-12T09:23:02;3.72;;;1.90;;
59273;SDS011;45044;41.572;24.730;2023-08-12T09:25:29;3.60;;;2.05;;
59273;SDS011;45044;41.572;24.730;2023-08-12T09:27:59;2.90;;;1.83;;
59273;SDS011;45044;41.572;24.730;2023-08-12T09:30:29;3.33;;;1.90;;
59273;SDS011;45044;41.572;24.730;2023-08-12T09:32:58;3.30;;;2.22;;
59273;SDS011;45044;41.572;24.730;2023-08-12T09:35:32;3.40;;;1.90;;
59273;SDS011;45044;41.572;24.730;2023-08-12T09:38:02;2.72;;;1.92;;
59273;SDS011;45044;41.572;24.730;2023-08-12T09:40:33;2.90;;;1.80;;
59273;SDS011;45044;41.572;24.730;2023-08-12T09:43:00;4.10;;;1.98;;
59273;SDS011;45044;41.572;24.730;2023-08-12T09:45:29;3.92;;;2.00;;
59273;SDS011;45044;41.572;24.730;2023-08-12T09:47:57;2.63;;;1.73;;
59273;SDS011;45044;41.572;24.730;2023-08-12T09:50:25;3.17;;;1.63;;
59273;SDS011;45044;41.572;24.730;2023-08-12T09:52:53;2.40;;;1.67;;
59273;SDS011;45044;41.572;24.730;2023-08-12T09:55:22;3.00;;;2.00;;
59273;SDS011;45044;41.572;24.730;2023-08-12T09:57:51;3.63;;;1.80;;
59273;SDS011;45044;41.572;24.730;2023-08-12T10:00:20;3.08;;;1.90;;
59273;SDS011;45044;41.572;24.730;2023-08-12T10:02:49;3.33;;;2.13;;
59273;SDS011;45044;41.572;24.730;2023-08-12T10:05:24;2.78;;;1.40;;
59273;SDS011;45044;41.572;24.730;2023-08-12T10:07:58;3.17;;;1.90;;
59273;SDS011;45044;41.572;24.730;2023-08-12T10:10:26;2.33;;;1.80;;
59273;SDS011;45044;41.572;24.730;2023-08-12T10:12:53;2.20;;;1.77;;
59273;SDS011;45044;41.572;24.730;2023-08-12T10:15:31;2.85;;;1.73;;
59273;SDS011;45044;41.572;24.730;2023-08-12T10:17:58;3.35;;;1.70;;
59273;SDS011;45044;41.572;24.730;2023-08-12T10:20:33;2.92;;;2.30;;
59273;SDS011;45044;41.572;24.730;2023-08-12T10:23:03;3.58;;;2.03;;
59273;SDS011;45044;41.572;24.730;2023-08-12T10:25:33;2.60;;;1.75;;
59273;SDS011;45044;41.572;24.730;2023-08-12T10:28:00;4.00;;;2.17;;
59273;SDS011;45044;41.572;24.730;2023-08-12T10:30:28;3.42;;;1.90;;
59273;SDS011;45044;41.572;24.730;2023-08-12T10:32:57;3.47;;;2.13;;
59273;SDS011;45044;41.572;24.730;2023-08-12T10:35:40;4.50;;;1.92;;
59273;SDS011;45044;41.572;24.730;2023-08-12T10:38:11;3.42;;;1.83;;
59273;SDS011;45044;41.572;24.730;2023-08-12T10:40:40;4.03;;;1.88;;
59273;SDS011;45044;41.572;24.730;2023-08-12T10:43:07;3.08;;;2.13;;
59273;SDS011;45044;41.572;24.730;2023-08-12T10:45:47;3.20;;;2.22;;
59273;SDS011;45044;41.572;24.730;2023-08-12T10:48:22;3.50;;;1.92;;
59273;SDS011;45044;41.572;24.730;2023-08-12T10:50:54;3.47;;;1.88;;
59273;SDS011;45044;41.572;24.730;2023-08-12T10:53:25;3.67;;;2.10;;
59273;SDS011;45044;41.572;24.730;2023-08-12T10:55:58;5.63;;;2.10;;
59273;SDS011;45044;41.572;24.730;2023-08-12T10:58:33;4.40;;;2.42;;
59273;SDS011;45044;41.572;24.730;2023-08-12T11:01:02;3.50;;;1.80;;
59273;SDS011;45044;41.572;24.730;2023-08-12T11:03:32;2.95;;;2.00;;
59273;SDS011;45044;41.572;24.730;2023-08-12T11:06:04;3.20;;;1.77;;
59273;SDS011;45044;41.572;24.730;2023-08-12T11:08:31;2.97;;;1.73;;
59273;SDS011;45044;41.572;24.730;2023-08-12T11:11:00;3.55;;;2.42;;
59273;SDS011;45044;41.572;24.730;2023-08-12T11:13:28;5.05;;;2.20;;
59273;SDS011;45044;41.572;24.730;2023-08-12T11:16:14;2.67;;;1.98;;
59273;SDS011;45044;41.572;24.730;2023-08-12T11:18:44;5.00;;;2.33;;
59273;SDS011;45044;41.572;24.730;2023-08-12T11:21:11;4.03;;;2.10;;
59273;SDS011;45044;41.572;24.730;2023-08-12T11:23:38;3.35;;;1.92;;
59273;SDS011;45044;41.572;24.730;2023-08-12T11:26:06;3.10;;;2.22;;
59273;SDS011;45044;41.572;24.730;2023-08-12T11:28:33;2.90;;;1.98;;
59273;SDS011;45044;41.572;24.730;2023-08-12T11:31:04;3.17;;;2.25;;
59273;SDS011;45044;41.572;24.730;2023-08-12T11:33:31;3.65;;;2.15;;
59273;SDS011;45044;41.572;24.730;2023-08-12T11:35:58;3.38;;;2.00;;
59273;SDS011;45044;41.572;24.730;2023-08-12T11:38:28;3.30;;;1.92;;
59273;SDS011;45044;41.572;24.730;2023-08-12T11:40:55;3.22;;;2.20;;
59273;SDS011;45044;41.572;24.730;2023-08-12T11:43:22;3.97;;;1.90;;
59273;SDS011;45044;41.572;24.730;2023-08-12T11:45:49;3.00;;;1.80;;
59273;SDS011;45044;41.572;24.730;2023-08-12T11:48:16;2.72;;;1.75;;
59273;SDS011;45044;41.572;24.730;2023-08-12T11:50:43;2.10;;;1.50;;
59273;SDS011;45044;41.572;24.730;2023-08-12T11:53:09;4.32;;;2.30;;
59273;SDS011;45044;41.572;24.730;2023-08-12T11:55:36;4.65;;;2.40;;
59273;SDS011;45044;41.572;24.730;2023-08-12T11:58:03;3.80;;;2.20;;
59273;SDS011;45044;41.572;24.730;2023-08-12T12:00:31;2.63;;;2.00;;
59273;SDS011;45044;41.572;24.730;2023-08-12T12:03:00;3.63;;;2.20;;
59273;SDS011;45044;41.572;24.730;2023-08-12T12:05:28;3.08;;;2.03;;
59273;SDS011;45044;41.572;24.730;2023-08-12T12:07:58;3.38;;;2.10;;
59273;SDS011;45044;41.572;24.730;2023-08-12T12:13:00;7.32;;;2.75;;
59273;SDS011;45044;41.572;24.730;2023-08-12T12:15:28;4.20;;;2.17;;
59273;SDS011;45044;41.572;24.730;2023-08-12T12:17:55;3.83;;;2.13;;
59273;SDS011;45044;41.572;24.730;2023-08-12T12:20:22;6.20;;;2.50;;
59273;SDS011;45044;41.572;24.730;2023-08-12T12:22:49;2.67;;;2.20;;
59273;SDS011;45044;41.572;24.730;2023-08-12T12:25:17;3.75;;;2.40;;
59273;SDS011;45044;41.572;24.730;2023-08-12T12:27:47;4.40;;;2.90;;
59273;SDS011;45044;41.572;24.730;2023-08-12T12:30:14;4.65;;;2.50;;
59273;SDS011;45044;41.572;24.730;2023-08-12T12:32:42;8.18;;;2.78;;
59273;SDS011;45044;41.572;24.730;2023-08-12T12:35:09;3.15;;;1.63;;
59273;SDS011;45044;41.572;24.730;2023-08-12T12:37:36;1.88;;;1.67;;
59273;SDS011;45044;41.572;24.730;2023-08-12T12:40:03;2.63;;;2.05;;
59273;SDS011;45044;41.572;24.730;2023-08-12T12:42:32;3.05;;;1.90;;
59273;SDS011;45044;41.572;24.730;2023-08-12T12:44:59;4.25;;;2.03;;
59273;SDS011;45044;41.572;24.730;2023-08-12T12:47:25;2.92;;;1.92;;
59273;SDS011;45044;41.572;24.730;2023-08-12T12:49:52;2.88;;;2.00;;
59273;SDS011;45044;41.572;24.730;2023-08-12T12:52:19;4.38;;;2.42;;
59273;SDS011;45044;41.572;24.730;2023-08-12T12:54:46;2.30;;;1.80;;
59273;SDS011;45044;41.572;24.730;2023-08-12T12:57:13;2.58;;;1.90;;
59273;SDS011;45044;41.572;24.730;2023-08-12T12:59:39;4.10;;;2.00;;
59273;SDS011;45044;41.572;24.730;2023-08-12T13:02:06;3.42;;;1.80;;
59273;SDS011;45044;41.572;24.730;2023-08-12T13:04:34;4.18;;;2.08;;
59273;SDS011;45044;41.572;24.730;2023-08-12T13:07:01;3.22;;;2.00;;
59273;SDS011;45044;41.572;24.730;2023-08-12T13:09:27;3.55;;;2.28;;
59273;SDS011;45044;41.572;24.730;2023-08-12T13:11:54;3.50;;;2.03;;
59273;SDS011;45044;41.572;24.730;2023-08-12T13:14:23;3.38;;;2.40;;
59273;SDS011;45044;41.572;24.730;2023-08-12T13:16:51;2.90;;;2.35;;
59273;SDS011;45044;41.572;24.730;2023-08-12T13:19:17;5.38;;;2.40;;
59273;SDS011;45044;41.572;24.730;2023-08-12T13:21:44;5.78;;;2.10;;
59273;SDS011;45044;41.572;24.730;2023-08-12T13:24:11;3.33;;;1.98;;
59273;SDS011;45044;41.572;24.730;2023-08-12T13:26:38;3.92;;;2.30;;
59273;SDS011;45044;41.572;24.730;2023-08-12T13:29:05;2.97;;;1.90;;
59273;SDS011;45044;41.572;24.730;2023-08-12T13:31:32;2.88;;;1.90;;
59273;SDS011;45044;41.572;24.730;2023-08-12T13:33:59;2.72;;;2.00;;
59273;SDS011;45044;41.572;24.730;2023-08-12T13:36:26;3.90;;;2.35;;
59273;SDS011;45044;41.572;24.730;2023-08-12T13:38:53;3.60;;;2.10;;
59273;SDS011;45044;41.572;24.730;2023-08-12T13:41:20;3.17;;;2.00;;
59273;SDS011;45044;41.572;24.730;2023-08-12T13:43:47;2.53;;;2.00;;
59273;SDS011;45044;41.572;24.730;2023-08-12T13:46:14;4.55;;;2.13;;
59273;SDS011;45044;41.572;24.730;2023-08-12T13:48:41;3.60;;;2.13;;
59273;SDS011;45044;41.572;24.730;2023-08-12T13:51:08;3.70;;;2.17;;
59273;SDS011;45044;41.572;24.730;2023-08-12T13:53:35;3.55;;;2.25;;
59273;SDS011;45044;41.572;24.730;2023-08-12T13:56:02;3.22;;;2.20;;
59273;SDS011;45044;41.572;24.730;2023-08-12T13:58:29;4.13;;;2.17;;
59273;SDS011;45044;41.572;24.730;2023-08-12T14:00:56;3.28;;;2.40;;
59273;SDS011;45044;41.572;24.730;2023-08-12T14:03:22;4.03;;;1.92;;
59273;SDS011;45044;41.572;24.730;2023-08-12T14:05:49;4.50;;;2.05;;
59273;SDS011;45044;41.572;24.730;2023-08-12T14:08:16;5.03;;;2.15;;
59273;SDS011;45044;41.572;24.730;2023-08-12T14:10:49;2.55;;;1.95;;
59273;SDS011;45044;41.572;24.730;2023-08-12T14:13:16;3.40;;;2.45;;
59273;SDS011;45044;41.572;24.730;2023-08-12T14:15:43;5.18;;;2.50;;
59273;SDS011;45044;41.572;24.730;2023-08-12T14:18:10;3.15;;;2.10;;
59273;SDS011;45044;41.572;24.730;2023-08-12T14:20:36;3.42;;;2.20;;
59273;SDS011;45044;41.572;24.730;2023-08-12T14:23:03;4.88;;;2.22;;
59273;SDS011;45044;41.572;24.730;2023-08-12T14:25:30;2.40;;;2.10;;
59273;SDS011;45044;41.572;24.730;2023-08-12T14:27:57;4.90;;;2.17;;
59273;SDS011;45044;41.572;24.730;2023-08-12T14:30:24;2.53;;;1.92;;
59273;SDS011;45044;41.572;24.730;2023-08-12T14:32:54;3.08;;;1.90;;
59273;SDS011;45044;41.572;24.730;2023-08-12T14:35:21;3.00;;;1.92;;
59273;SDS011;45044;41.572;24.730;2023-08-12T14:37:48;4.13;;;2.20;;
59273;SDS011;45044;41.572;24.730;2023-08-12T14:40:14;4.50;;;2.70;;
59273;SDS011;45044;41.572;24.730;2023-08-12T14:42:41;4.40;;;2.22;;